Flight Track Log - Related Links

Times and Time Zones

All times are in EDT time to prevent confusion due to time zone crossing. See the UAL33 flight status page for this flight to view local times or setup timezone preferences in your user account.

Time Position Orientation Groundspeed Altitude Reporting Facility
EDT Latitude Longitude Course Direction KTS MPH feet Rate Location/Type
Thu 09:52:37 PM 41.9470 -87.9070 223° Southwest 166 191 1,200  Level FlightAware ADS-B
Thu 09:53:06 PM 41.9340 -87.9260 227° Southwest 184 212 2,200 2,556 Climbing FlightAware ADS-B
Thu 09:53:31 PM 41.9150 -87.9530 227° Southwest 207 238 3,500 2,786 Climbing FlightAware ADS-B
Thu 09:54:02 PM 41.8920 -87.9830 224° Southwest 248 285 4,800 2,900 Climbing FlightAware ADS-B
Thu 09:54:31 PM 41.8680 -88.0150 225° Southwest 262 302 6,400 3,474 Climbing FlightAware ADS-B
Thu 09:54:59 PM 41.8450 -88.0500 229° Southwest 272 313 8,100 3,450 Climbing FlightAware ADS-B
Thu 09:55:11 PM 41.8420 -88.0700 259° West 276 318 8,700 3,414 Climbing FlightAware ADS-B
Thu 09:55:57 PM 41.8380 -88.1510 266° West 291 335 11,400 3,000 Climbing FlightAware ADS-B
Thu 09:56:33 PM 41.8360 -88.2180 268° West 303 349 12,800 1,823 Climbing FlightAware ADS-B
Thu 09:57:16 PM 41.8320 -88.3020 266° West 336 387 13,800 1,674 Climbing FlightAware ADS-B
Thu 09:57:59 PM 41.8230 -88.3960 263° West 374 430 15,200 1,814 Climbing FlightAware ADS-B
Thu 09:58:42 PM 41.8030 -88.4860 253° West 385 443 16,400 2,458 Climbing FlightAware ADS-B
Thu 09:59:22 PM 41.7820 -88.5870 254° West 389 448 18,600 2,753 Climbing FlightAware ADS-B
Thu 10:00:07 PM 41.7590 -88.6910 254° West 407 468 20,300 2,138 Climbing FlightAware ADS-B
Thu 10:00:49 PM 41.7370 -88.7960 254° West 425 489 21,700 2,296 Climbing FlightAware ADS-B
Thu 10:01:28 PM 41.7150 -88.8950 253° West 429 494 23,400 2,714 Climbing FlightAware ADS-B
Thu 10:02:13 PM 41.6900 -89.0080 254° West 425 489 25,500 2,488 Climbing FlightAware ADS-B
Thu 10:02:50 PM 41.6740 -89.0830 254° West 424 488 26,800 2,286 Climbing FlightAware ADS-B
Thu 10:03:37 PM 41.6430 -89.2210 253° West 426 490 28,700 2,022 Climbing FlightAware ADS-B
Thu 10:04:22 PM 41.6190 -89.3330 254° West 435 501 29,900 1,412 Climbing FlightAware ADS-B
Thu 10:05:02 PM 41.5950 -89.4390 253° West 446 513 30,700 1,301 Climbing FlightAware ADS-B
Thu 10:05:45 PM 41.5690 -89.5550 253° West 453 521 31,700 1,683 Climbing FlightAware ADS-B
Thu 10:06:24 PM 41.5470 -89.6560 254° West 448 516 33,000 2,143 Climbing FlightAware ADS-B
Thu 10:07:09 PM 41.5200 -89.7740 253° West 435 501 34,700 2,276 Climbing FlightAware ADS-B
Thu 10:07:51 PM 41.4960 -89.8810 253° West 419 482 36,300 1,852 Climbing FlightAware ADS-B
Thu 10:08:30 PM 41.4750 -89.9740 253° West 416 479 37,200 1,000 Climbing FlightAware ADS-B
Thu 10:09:15 PM 41.4490 -90.0850 253° West 424 488 37,700 512 Climbing FlightAware ADS-B
Thu 10:09:52 PM 41.4280 -90.1780 253° West 434 499 37,900 578 Climbing FlightAware ADS-B
Thu 10:10:38 PM 41.4000 -90.2970 253° West 438 504 38,500 1,010 Climbing FlightAware ADS-B
Thu 10:11:33 PM 41.3710 -90.4230 253° West 430 495 39,600 928 Climbing FlightAware ADS-B
Thu 10:12:15 PM 41.3440 -90.5400 253° West 428 493 40,000 279 Climbing FlightAware ADS-B
Thu 10:12:59 PM 41.3120 -90.6480 249° West 429 494 40,000  Level FlightAware ADS-B
Thu 10:13:39 PM 41.2640 -90.7340 233° Southwest 429 494 40,000  Level FlightAware ADS-B
Thu 10:14:19 PM 41.2180 -90.8120 232° Southwest 428 493 40,000  Level FlightAware ADS-B
Thu 10:15:04 PM 41.1600 -90.9110 232° Southwest 426 490 40,000  Level FlightAware ADS-B
Thu 10:16:13 PM 41.0810 -91.0440 232° Southwest 427 491 40,000  Level FlightAware ADS-B
Thu 10:16:52 PM 41.0300 -91.1290 232° Southwest 427 491 40,000  Level FlightAware ADS-B
Thu 10:17:40 PM 40.9700 -91.2290 232° Southwest 427 491 40,000  Level FlightAware ADS-B
Thu 10:18:20 PM 40.9210 -91.3110 232° Southwest 428 493 40,000  Level FlightAware ADS-B
Thu 10:18:59 PM 40.8750 -91.3870 231° Southwest 429 494 40,000  Level FlightAware ADS-B
Thu 10:19:45 PM 40.8160 -91.4840 231° Southwest 432 497 40,000  Level FlightAware ADS-B
Thu 10:20:19 PM 40.7720 -91.5580 232° Southwest 431 496 40,000  Level FlightAware ADS-B
Thu 10:21:05 PM 40.7160 -91.6490 231° Southwest 433 498 40,000  Level FlightAware ADS-B
Thu 10:21:49 PM 40.6630 -91.7380 232° Southwest 433 498 40,000  Level FlightAware ADS-B
Thu 10:22:30 PM 40.6120 -91.8210 231° Southwest 434 499 40,000  Level FlightAware ADS-B
Thu 10:23:15 PM 40.5530 -91.9170 231° Southwest 433 498 40,000  Level FlightAware ADS-B
Thu 10:23:57 PM 40.4990 -92.0050 231° Southwest 433 498 40,000  Level FlightAware ADS-B
Thu 10:24:36 PM 40.4510 -92.0830 231° Southwest 431 496 40,000  Level FlightAware ADS-B
Thu 10:25:12 PM 40.4070 -92.1550 231° Southwest 428 493 40,000  Level FlightAware ADS-B
Thu 10:26:02 PM 40.3420 -92.2590 231° Southwest 426 490 40,000  Level FlightAware ADS-B
Thu 10:26:45 PM 40.2900 -92.3440 231° Southwest 424 488 40,000  Level FlightAware ADS-B
Thu 10:27:24 PM 40.2410 -92.4220 231° Southwest 423 487 40,000  Level FlightAware ADS-B
Thu 10:28:07 PM 40.1900 -92.5040 231° Southwest 422 486 40,000  Level FlightAware ADS-B
Thu 10:28:48 PM 40.1370 -92.5860 230° Southwest 422 486 40,000  Level FlightAware ADS-B
Thu 10:29:28 PM 40.0790 -92.6510 221° Southwest 425 489 40,000  Level FlightAware ADS-B
Thu 10:30:14 PM 40.0070 -92.7260 219° Southwest 426 490 40,000  Level FlightAware ADS-B
Thu 10:30:57 PM 39.9430 -92.7930 219° Southwest 426 490 40,000  Level FlightAware ADS-B
Thu 10:31:34 PM 39.8850 -92.8540 219° Southwest 426 490 40,000  Level FlightAware ADS-B
Thu 10:32:20 PM 39.8140 -92.9280 219° Southwest 425 489 40,000  Level FlightAware ADS-B
Thu 10:33:00 PM 39.7580 -92.9870 219° Southwest 423 487 40,000  Level FlightAware ADS-B
Thu 10:33:40 PM 39.6940 -93.0530 218° Southwest 419 482 40,000  Level FlightAware ADS-B
Thu 10:34:28 PM 39.6190 -93.1300 218° Southwest 416 479 40,000  Level FlightAware ADS-B
Thu 10:35:06 PM 39.5620 -93.1900 219° Southwest 416 479 40,000  Level FlightAware ADS-B
Thu 10:35:50 PM 39.4980 -93.2550 218° Southwest 416 479 40,000  Level FlightAware ADS-B
Thu 10:36:32 PM 39.4320 -93.3230 219° Southwest 419 482 40,000  Level FlightAware ADS-B
Thu 10:37:16 PM 39.3660 -93.3910 219° Southwest 421 484 40,000  Level FlightAware ADS-B
Thu 10:37:56 PM 39.3040 -93.4540 218° Southwest 421 484 40,000  Level FlightAware ADS-B
Thu 10:38:36 PM 39.2420 -93.5170 218° Southwest 422 486 40,000  Level FlightAware ADS-B
Thu 10:39:22 PM 39.1720 -93.5890 219° Southwest 422 486 40,000  Level FlightAware ADS-B
Thu 10:40:04 PM 39.1080 -93.6540 218° Southwest 422 486 40,000  Level FlightAware ADS-B
Thu 10:40:38 PM 39.0560 -93.7070 218° Southwest 421 484 40,000  Level FlightAware ADS-B
Thu 10:41:26 PM 38.9830 -93.7810 218° Southwest 420 483 40,000  Level FlightAware ADS-B
Thu 10:42:10 PM 38.9160 -93.8490 218° Southwest 419 482 40,000  Level FlightAware ADS-B
Thu 10:42:50 PM 38.8550 -93.9110 218° Southwest 419 482 40,000  Level FlightAware ADS-B
Thu 10:43:32 PM 38.7910 -93.9760 218° Southwest 420 483 40,000  Level FlightAware ADS-B
Thu 10:44:16 PM 38.7220 -94.0440 218° Southwest 421 484 40,000  Level FlightAware ADS-B
Thu 10:44:56 PM 38.6630 -94.1040 218° Southwest 421 484 40,000  Level FlightAware ADS-B
Thu 10:45:20 PM 38.6280 -94.1390 218° Southwest 422 486 40,000  Level FlightAware ADS-B
Thu 10:46:16 PM 38.5390 -94.2260 217° Southwest 420 483 40,000  Level FlightAware ADS-B
Thu 10:46:47 PM 38.4920 -94.2720 217° Southwest 419 482 40,000  Level FlightAware ADS-B
Thu 10:47:28 PM 38.4290 -94.3350 218° Southwest 417 480 40,000  Level FlightAware ADS-B
Thu 10:48:08 PM 38.3690 -94.3930 217° Southwest 414 476 40,000  Level FlightAware ADS-B
Thu 10:48:50 PM 38.3040 -94.4560 217° Southwest 413 475 40,000  Level FlightAware ADS-B
Thu 10:49:34 PM 38.2320 -94.5140 212° Southwest 416 479 40,000  Level FlightAware ADS-B
Thu 10:50:14 PM 38.1630 -94.5590 207° Southwest 416 479 40,000  Level FlightAware ADS-B
Thu 10:50:56 PM 38.0930 -94.6040 207° Southwest 417 480 40,000  Level FlightAware ADS-B
Thu 10:51:38 PM 38.0190 -94.6510 207° Southwest 417 480 40,000  Level FlightAware ADS-B
Thu 10:52:18 PM 37.9540 -94.6930 207° Southwest 417 480 40,000  Level FlightAware ADS-B
Thu 10:53:02 PM 37.8750 -94.7430 207° Southwest 418 481 40,000  Level FlightAware ADS-B
Thu 10:53:46 PM 37.8020 -94.7900 207° Southwest 419 482 40,000  Level FlightAware ADS-B
Thu 10:54:28 PM 37.7260 -94.8380 207° Southwest 419 482 40,000  Level FlightAware ADS-B
Thu 10:55:10 PM 37.6530 -94.8850 207° Southwest 418 481 40,000  Level FlightAware ADS-B
Thu 10:55:52 PM 37.5810 -94.9300 206° Southwest 417 480 40,000  Level FlightAware ADS-B
Thu 10:56:32 PM 37.5120 -94.9740 207° Southwest 415 478 40,000  Level FlightAware ADS-B
Thu 10:57:29 PM 37.4150 -95.0350 207° Southwest 415 478 40,000  Level FlightAware ADS-B
Thu 10:58:12 PM 37.3400 -95.0820 206° Southwest 415 478 40,000  Level FlightAware ADS-B
Thu 10:58:52 PM 37.2710 -95.1250 206° Southwest 414 476 40,000  Level FlightAware ADS-B
Thu 10:59:38 PM 37.1920 -95.1740 206° Southwest 415 478 40,000  Level FlightAware ADS-B
Thu 11:00:18 PM 37.1230 -95.2180 207° Southwest 415 478 40,000  Level FlightAware ADS-B
Thu 11:00:58 PM 37.0550 -95.2600 206° Southwest 413 475 40,000  Level FlightAware ADS-B
Thu 11:01:45 PM 36.9740 -95.3100 206° Southwest 411 473 40,000  Level FlightAware ADS-B
Thu 11:02:25 PM 36.9070 -95.3520 207° Southwest 412 474 40,000  Level FlightAware ADS-B
Thu 11:03:03 PM 36.8420 -95.3920 206° Southwest 411 473 40,000  Level FlightAware ADS-B
Thu 11:03:48 PM 36.7660 -95.4390 206° Southwest 410 472 40,000  Level FlightAware ADS-B
Thu 11:04:32 PM 36.6910 -95.4860 207° Southwest 413 475 40,000  Level FlightAware ADS-B
Thu 11:05:15 PM 36.6170 -95.5310 206° Southwest 415 478 40,000  Level FlightAware ADS-B
Thu 11:06:26 PM 36.5070 -95.5980 206° Southwest 415 478 40,000  Level FlightAware ADS-B
Thu 11:07:00 PM 36.4480 -95.6350 207° Southwest 418 481 40,000  Level FlightAware ADS-B
Thu 11:07:42 PM 36.3610 -95.6880 206° Southwest 419 482 40,000  Level FlightAware ADS-B
Thu 11:08:23 PM 36.2930 -95.7290 206° Southwest 420 483 40,000  Level FlightAware ADS-B
Thu 11:09:10 PM 36.2100 -95.7790 206° Southwest 420 483 40,000  Level FlightAware ADS-B
Thu 11:09:53 PM 36.1400 -95.8150 203° Southwest 421 484 40,000  Level FlightAware ADS-B
Thu 11:10:36 PM 36.0460 -95.8410 193° South 427 491 40,000  Level FlightAware ADS-B
Thu 11:11:32 PM 35.9390 -95.8780 196° South 427 491 40,000  Level FlightAware ADS-B
Thu 11:12:10 PM 35.8680 -95.9030 196° South 427 491 40,000  Level FlightAware ADS-B
Thu 11:12:56 PM 35.7790 -95.9340 196° South 428 493 40,000  Level FlightAware ADS-B
Thu 11:13:36 PM 35.7020 -95.9610 196° South 431 496 40,000  Level FlightAware ADS-B
Thu 11:14:18 PM 35.6270 -95.9870 196° South 433 498 40,000  Level FlightAware ADS-B
Thu 11:14:59 PM 35.5430 -96.0160 196° South 434 499 40,000  Level FlightAware ADS-B
Thu 11:15:29 PM 35.4870 -96.0350 195° South 433 498 40,000  Level FlightAware ADS-B
Thu 11:16:19 PM 35.3910 -96.0690 196° South 431 496 40,000  Level FlightAware ADS-B
Thu 11:16:59 PM 35.3120 -96.0960 196° South 430 495 40,000  Level FlightAware ADS-B
Thu 11:17:42 PM 35.2300 -96.1240 196° South 428 493 40,000  Level FlightAware ADS-B
Thu 11:18:23 PM 35.1520 -96.1510 196° South 428 493 40,000  Level FlightAware ADS-B
Thu 11:19:05 PM 35.0750 -96.1770 195° South 428 493 40,000  Level FlightAware ADS-B
Thu 11:19:47 PM 34.9930 -96.2050 196° South 428 493 40,000  Level FlightAware ADS-B
Thu 11:20:31 PM 34.9080 -96.2340 196° South 428 493 40,000  Level FlightAware ADS-B
Thu 11:21:11 PM 34.8310 -96.2600 195° South 428 493 40,000  Level FlightAware ADS-B
Thu 11:21:55 PM 34.7480 -96.2880 195° South 428 493 40,000  Level FlightAware ADS-B
Thu 11:22:31 PM 34.6800 -96.3120 196° South 429 494 40,000  Level FlightAware ADS-B
Thu 11:23:14 PM 34.5950 -96.3400 195° South 430 495 40,000  Level FlightAware ADS-B
Thu 11:24:01 PM 34.5070 -96.3700 196° South 429 494 40,000  Level FlightAware ADS-B
Thu 11:24:43 PM 34.4260 -96.3970 195° South 427 491 40,000  Level FlightAware ADS-B
Thu 11:25:52 PM 34.3080 -96.4370 196° South 425 489 40,000  Level FlightAware ADS-B
Thu 11:26:33 PM 34.2260 -96.4640 195° South 424 488 40,000  Level FlightAware ADS-B
Thu 11:27:15 PM 34.1380 -96.4940 196° South 426 490 40,000  Level FlightAware ADS-B
Thu 11:27:53 PM 34.0650 -96.5180 195° South 426 490 40,000  Level FlightAware ADS-B
Thu 11:28:39 PM 33.9780 -96.5470 195° South 427 491 40,000  Level FlightAware ADS-B
Thu 11:29:21 PM 33.8990 -96.5730 195° South 428 493 40,000  Level FlightAware ADS-B
Thu 11:30:03 PM 33.8170 -96.6000 195° South 428 493 40,000  Level FlightAware ADS-B
Thu 11:30:37 PM 33.7518 -96.6220 196° South 427 491 40,000  Level FlightAware ADS-B
Thu 11:31:05 PM 33.6962 -96.6390 194° South 430 495 40,000  Level FlightAware ADS-B
Thu 11:31:22 PM 33.6636 -96.6439 187° South 435 501 40,000  Level FlightAware ADS-B
Thu 11:31:39 PM 33.6292 -96.6445 181° South 441 507 40,000  Level FlightAware ADS-B
Thu 11:32:10 PM 33.5750 -96.6410 177° South 441 507 40,000  Level FlightAware ADS-B
Thu 11:32:17 PM 33.5519 -96.6395 177° South 442 509 40,000  Level FlightAware ADS-B
Thu 11:32:49 PM 33.4850 -96.6352 177° South 441 507 40,000  Level FlightAware ADS-B
Thu 11:33:22 PM 33.4198 -96.6312 177° South 441 507 40,000  Level FlightAware ADS-B
Thu 11:33:56 PM 33.3506 -96.6270 177° South 442 509 40,000  Level FlightAware ADS-B
Thu 11:34:54 PM 33.2319 -96.6194 177° South 442 509 40,000  Level FlightAware ADS-B
Thu 11:35:34 PM 33.1495 -96.6143 177° South 441 507 40,000  Level FlightAware ADS-B
Thu 11:36:07 PM 33.0833 -96.6101 177° South 441 507 40,000  Level FlightAware ADS-B
Thu 11:36:49 PM 32.9980 -96.6051 177° South 441 507 40,000  Level FlightAware ADS-B
Thu 11:37:27 PM 32.9190 -96.6002 177° South 441 507 40,000  Level FlightAware ADS-B
Thu 11:38:01 PM 32.8503 -96.5959 177° South 448 516 40,000  Level FlightAware ADS-B
Thu 11:38:34 PM 32.7817 -96.5915 177° South 450 518 40,000  Level FlightAware ADS-B
Thu 11:39:04 PM 32.7186 -96.5876 177° South 450 518 40,000  Level FlightAware ADS-B
Thu 11:39:45 PM 32.6360 -96.5830 177° South 450 518 40,000  Level FlightAware ADS-B
Thu 11:40:09 PM 32.5840 -96.5794 177° South 450 518 40,000  Level FlightAware ADS-B
Thu 11:40:45 PM 32.5079 -96.5748 177° South 449 517 40,000  Level FlightAware ADS-B
Thu 11:41:15 PM 32.4453 -96.5709 177° South 449 517 40,000  Level FlightAware ADS-B
Thu 11:41:46 PM 32.3824 -96.5670 177° South 447 514 40,000  Level FlightAware ADS-B
Thu 11:42:17 PM 32.3194 -96.5632 177° South 444 511 40,000  Level FlightAware ADS-B
Thu 11:42:47 PM 32.2578 -96.5594 177° South 442 509 40,000  Level FlightAware ADS-B
Thu 11:44:19 PM 32.0695 -96.5481 177° South 436 502 40,000  Level FlightAware ADS-B
Thu 11:44:53 PM 32.0025 -96.5440 177° South 434 499 40,000  Level FlightAware ADS-B
Thu 11:45:23 PM 31.9414 -96.5402 177° South 432 497 40,000 -492 Level FlightAware ADS-B
Thu 11:45:54 PM 31.8804 -96.5366 177° South 433 498 39,500 -984 Descending FlightAware ADS-B
Thu 11:46:24 PM 31.8197 -96.5331 177° South 436 502 39,000 -330 Descending FlightAware ADS-B
Thu 11:47:25 PM 31.6971 -96.5255 177° South 434 499 39,000 -66 Level FlightAware ADS-B
Thu 11:47:55 PM 31.6371 -96.5219 177° South 432 497 38,900 -1,475 Descending FlightAware ADS-B
Thu 11:48:26 PM 31.5751 -96.5182 177° South 437 503 37,500 -2,634 Descending FlightAware ADS-B
Thu 11:48:36 PM 31.5545 -96.5168 177° South 437 503 37,100 -2,545 Descending FlightAware ADS-B
Thu 11:48:59 PM 31.5085 -96.5090 169° South 442 509 36,100 -3,134 Descending FlightAware ADS-B
Thu 11:49:43 PM 31.4207 -96.4780 162° South 458 527 33,600 -3,415 Descending FlightAware ADS-B
Thu 11:50:04 PM 31.3770 -96.4615 162° South 462 532 32,400 -2,885 Descending FlightAware ADS-B
Thu 11:50:35 PM 31.3128 -96.4503 173° South 454 522 31,100 -1,377 Descending FlightAware ADS-B
Thu 11:51:05 PM 31.2496 -96.4539 183° South 452 520 31,000 -600 Descending FlightAware ADS-B
Thu 11:51:35 PM 31.1863 -96.4584 183° South 456 525 30,500 -1,770 Descending FlightAware ADS-B
Thu 11:52:06 PM 31.1225 -96.4636 184° South 450 518 29,200 -2,459 Descending FlightAware ADS-B
Thu 11:52:36 PM 31.0604 -96.4694 185° South 441 507 28,000 -2,374 Descending FlightAware ADS-B
Thu 11:53:37 PM 30.9385 -96.4802 184° South 426 490 25,600 -2,375 Descending FlightAware ADS-B
Thu 11:54:12 PM 30.8707 -96.4848 180° South 422 486 24,200 -2,182 Descending FlightAware ADS-B
Thu 11:54:21 PM 30.8520 -96.4812 168° South 428 493 24,000 -1,091 Descending FlightAware ADS-B
Thu 11:54:34 PM 30.8277 -96.4701 155° Southeast 433 498 23,800 -947 Descending FlightAware ADS-B
Thu 11:54:40 PM 30.8183 -96.4637 150° Southeast 433 498 23,700 -1,000 Descending FlightAware ADS-B
Thu 11:54:46 PM 30.8078 -96.4550 145° Southeast 434 499 23,600 -1,898 Descending FlightAware ADS-B
Thu 11:56:18 PM 30.6685 -96.3211 141° Southeast 416 479 20,600 -2,066 Descending FlightAware ADS-B
Thu 11:56:48 PM 30.6231 -96.2782 141° Southeast 409 471 19,400 -2,400 Descending FlightAware ADS-B
Thu 11:57:18 PM 30.5793 -96.2367 141° Southeast 399 459 18,200 -2,361 Descending FlightAware ADS-B
Thu 11:57:49 PM 30.5367 -96.1962 141° Southeast 390 449 17,000 -2,413 Descending FlightAware ADS-B
Thu 11:58:50 PM 30.4536 -96.1176 141° Southeast 370 426 14,500 -2,374 Descending FlightAware ADS-B
Thu 11:59:20 PM 30.4138 -96.0799 141° Southeast 362 417 13,400 -2,235 Descending FlightAware ADS-B
Thu 11:59:41 PM 30.3867 -96.0541 141° Southeast 353 406 12,600 -3,000 Descending FlightAware ADS-B
Fri 12:00:04 AM 30.3606 -96.0230 131° Southeast 361 415 11,200 -3,120 Descending FlightAware ADS-B
Fri 12:00:31 AM 30.3332 -95.9813 127° Southeast 358 412 10,000 -1,163 Descending FlightAware ADS-B
Fri 12:02:13 AM 30.2460 -95.8484 128° Southeast 281 323 8,700 -947 Descending FlightAware ADS-B
Fri 12:02:44 AM 30.2222 -95.8124 127° Southeast 277 319 7,900 -1,574 Descending FlightAware ADS-B
Fri 12:03:14 AM 30.1989 -95.7771 127° Southeast 275 316 7,100 -1,574 Descending FlightAware ADS-B
Fri 12:03:45 AM 30.1752 -95.7415 128° Southeast 272 313 6,300 -1,548 Descending FlightAware ADS-B
Fri 12:04:16 AM 30.1517 -95.7060 127° Southeast 267 307 5,500 -1,565 Descending FlightAware ADS-B
Fri 12:04:31 AM 30.1403 -95.6887 127° Southeast 264 304 5,100 -1,600 Descending FlightAware ADS-B
Fri 12:04:46 AM 30.1292 -95.6716 127° Southeast 261 300 4,700 -1,600 Descending FlightAware ADS-B
Fri 12:05:01 AM 30.1180 -95.6546 127° Southeast 260 299 4,300 -1,556 Descending FlightAware ADS-B
Fri 12:05:13 AM 30.1098 -95.6421 127° Southeast 260 299 4,000 -1,556 Descending FlightAware ADS-B
Fri 12:05:28 AM 30.0988 -95.6256 128° Southeast 257 296 3,600 -1,600 Descending FlightAware ADS-B
Fri 12:05:43 AM 30.0880 -95.6091 127° Southeast 255 293 3,200 -1,355 Descending FlightAware ADS-B
Fri 12:05:59 AM 30.0767 -95.5921 128° Southeast 252 290 2,900 -581 Descending FlightAware ADS-B
Fri 12:06:14 AM 30.0662 -95.5763 128° Southeast 248 285 2,900  Level FlightAware ADS-B
Fri 12:06:31 AM 30.0544 -95.5584 127° Southeast 247 284 2,900 -188 Level FlightAware ADS-B
Fri 12:06:46 AM 30.0438 -95.5424 127° Southeast 248 285 2,800 -1,000 Descending FlightAware ADS-B
Fri 12:07:01 AM 30.0331 -95.5264 128° Southeast 249 287 2,400 -1,636 Descending FlightAware ADS-B
Fri 12:07:19 AM 30.0205 -95.5074 127° Southeast 252 290 1,900 -833 Descending FlightAware ADS-B
Fri 12:07:37 AM 30.0082 -95.4892 128° Southeast 233 268 1,900 -171 Level FlightAware ADS-B
Fri 12:07:54 AM 29.9969 -95.4724 128° Southeast 228 262 1,800 -261 Descending FlightAware ADS-B
Fri 12:08:00 AM 29.9935 -95.4666 124° Southeast 221 254 1,800 -667 Level FlightAware ADS-B
Fri 12:08:03 AM 29.9922 -95.4633 114° Southeast 219 252 1,700 -1,000 Descending FlightAware ADS-B
Fri 12:08:12 AM 29.9907 -95.4535 100° East 211 243 1,600 -1,000 Descending FlightAware ADS-B
Fri 12:08:15 AM 29.9910 -95.4502 84° East 210 242 1,500 -1,250 Descending FlightAware ADS-B
Fri 12:08:36 AM 29.9932 -95.4288 83° East 184 212 1,100 -968 Descending FlightAware ADS-B
Fri 12:08:46 AM 29.9930 -95.4193 91° East 169 194 1,000 -632 Descending FlightAware ADS-B
Fri 12:08:55 AM 29.9933 -95.4115 87° East 162 186 900 -600 Descending FlightAware ADS-B
Fri 12:09:06 AM 29.9935 -95.4021 89° East 153 176 800 -692 Descending FlightAware ADS-B
Fri 12:09:21 AM 29.9937 -95.3899 89° East 143 165 600 -783 Descending FlightAware ADS-B
Fri 12:09:29 AM 29.9937 -95.3839 90° East 141 162 500 -750 Descending FlightAware ADS-B

Login

Don't have an account? Register now (free) for customized features, flight alerts, and more!